createdAt,value
2022-11-03T00:01:51.322Z,6.32
2022-11-03T00:06:56.870Z,6.13
2022-11-03T00:12:00.963Z,5.25
2022-11-03T00:17:04.394Z,5.53
2022-11-03T00:22:09.168Z,5.90
2022-11-03T00:27:12.553Z,5.88
2022-11-03T00:32:15.940Z,5.60
2022-11-03T00:37:20.646Z,6.00
2022-11-03T00:42:24.083Z,6.50
2022-11-03T00:47:27.789Z,6.82
2022-11-03T00:52:32.587Z,6.70
2022-11-03T00:57:35.968Z,6.38
2022-11-03T01:02:39.463Z,6.15
2022-11-03T01:07:44.300Z,7.47
2022-11-03T01:12:47.679Z,7.55
2022-11-03T01:17:51.173Z,6.63
2022-11-03T01:22:55.942Z,7.90
2022-11-03T01:27:59.622Z,7.15
2022-11-03T01:33:03.169Z,6.70
2022-11-03T01:38:08.063Z,6.65
2022-11-03T01:43:19.561Z,6.68
2022-11-03T01:48:25.008Z,5.93
2022-11-03T01:53:30.765Z,6.80
2022-11-03T01:58:38.856Z,6.28
2022-11-03T02:03:47.137Z,6.20
2022-11-03T02:08:55.898Z,6.93
2022-11-03T02:13:59.636Z,6.07
2022-11-03T02:19:04.463Z,6.07
2022-11-03T02:24:16.527Z,6.13
2022-11-03T02:29:21.239Z,7.72
2022-11-03T02:34:29.169Z,7.38
2022-11-03T02:39:37.657Z,8.27
2022-11-03T02:44:44.929Z,6.55
2022-11-03T02:49:49.795Z,6.95
2022-11-03T02:54:55.174Z,6.43
2022-11-03T03:00:06.773Z,7.75
2022-11-03T03:05:15.056Z,8.40
2022-11-03T03:10:22.484Z,7.53
2022-11-03T03:15:41.897Z,7.88
2022-11-03T03:20:52.760Z,7.13
2022-11-03T03:26:03.365Z,7.20
2022-11-03T03:31:13.014Z,7.38
2022-11-03T03:36:19.808Z,6.90
2022-11-03T03:41:25.649Z,7.68
2022-11-03T03:46:36.482Z,8.98
2022-11-03T03:51:40.106Z,7.90
2022-11-03T03:56:47.294Z,8.32
2022-11-03T04:01:52.118Z,7.28
2022-11-03T04:07:09.855Z,7.47
2022-11-03T04:12:30.552Z,6.07
2022-11-03T04:17:53.022Z,6.35
2022-11-03T04:22:56.577Z,6.82
2022-11-03T04:28:00.208Z,7.03
2022-11-03T04:33:12.549Z,7.80
2022-11-03T04:38:24.191Z,7.53
2022-11-03T04:43:34.506Z,6.03
2022-11-03T04:48:39.503Z,5.80
2022-11-03T04:53:49.325Z,5.22
2022-11-03T04:58:53.944Z,5.63
2022-11-03T05:03:58.714Z,5.43
2022-11-03T05:09:06.786Z,5.00
2022-11-03T05:14:17.106Z,5.53
2022-11-03T05:19:25.376Z,4.93
2022-11-03T05:24:28.849Z,4.68
2022-11-03T05:29:36.693Z,4.53
2022-11-03T05:34:44.175Z,5.18
2022-11-03T05:39:48.766Z,5.45
2022-11-03T05:44:53.425Z,6.57
2022-11-03T05:50:03.512Z,5.72
2022-11-03T05:55:17.167Z,6.10
2022-11-03T06:00:29.846Z,8.18
2022-11-03T06:05:35.452Z,6.40
2022-11-03T06:10:46.232Z,8.25
2022-11-03T06:15:52.540Z,6.30
2022-11-03T06:20:59.798Z,6.30
2022-11-03T06:26:04.391Z,5.63
2022-11-03T06:31:22.044Z,6.85
2022-11-03T06:36:32.233Z,6.95
2022-11-03T06:41:38.061Z,7.43
2022-11-03T06:46:41.611Z,6.60
2022-11-03T06:51:46.597Z,7.35
2022-11-03T06:56:49.954Z,7.93
2022-11-03T07:01:56.895Z,7.18
2022-11-03T07:07:04.020Z,7.97
2022-11-03T07:12:14.801Z,8.20
2022-11-03T07:17:23.217Z,8.35
2022-11-03T07:22:28.800Z,8.13
2022-11-03T07:27:36.033Z,8.20
2022-11-03T07:32:40.199Z,8.27
2022-11-03T07:37:46.434Z,10.25
2022-11-03T07:42:49.962Z,8.15
2022-11-03T07:47:53.395Z,7.90
2022-11-03T07:52:58.386Z,6.63
2022-11-03T07:58:01.988Z,7.20
2022-11-03T08:03:05.870Z,5.60
2022-11-03T08:08:10.876Z,5.57
2022-11-03T08:13:14.531Z,5.43
2022-11-03T08:18:17.938Z,5.30
2022-11-03T08:23:26.551Z,5.13
2022-11-03T08:28:30.659Z,5.45
2022-11-03T08:33:34.890Z,5.75
2022-11-03T08:38:39.709Z,6.00
2022-11-03T08:43:43.086Z,5.93
2022-11-03T08:48:47.125Z,6.30
2022-11-03T08:53:54.396Z,6.00
2022-11-03T08:58:57.770Z,6.07
2022-11-03T09:04:01.421Z,5.22
2022-11-03T09:14:29.686Z,3.90
2022-11-03T09:19:33.137Z,3.83
2022-11-03T09:24:37.891Z,4.05
2022-11-03T09:30:11.136Z,4.07
2022-11-03T09:40:14.577Z,3.55
2022-11-03T09:45:18.285Z,3.30
2022-11-03T09:50:22.014Z,4.72
2022-11-03T09:55:28.858Z,4.85
2022-11-03T10:00:32.264Z,3.90
2022-11-03T10:05:35.963Z,3.50
2022-11-03T10:10:41.694Z,3.13
2022-11-03T10:15:45.067Z,3.38
2022-11-03T10:20:48.808Z,3.63
2022-11-03T10:25:53.510Z,3.13
2022-11-03T10:31:11.452Z,3.22
2022-11-03T10:36:26.393Z,4.50
2022-11-03T10:41:33.036Z,4.07
2022-11-03T10:46:49.204Z,3.80
2022-11-03T10:51:55.775Z,4.07
2022-11-03T10:57:00.783Z,3.67
2022-11-03T11:02:05.079Z,3.67
2022-11-03T11:07:20.288Z,3.17
2022-11-03T11:12:26.052Z,4.72
2022-11-03T11:17:45.664Z,3.40
2022-11-03T11:22:49.902Z,3.05
2022-11-03T11:27:59.019Z,3.08
2022-11-03T11:33:14.428Z,3.47
2022-11-03T11:39:06.676Z,2.47
2022-11-03T11:44:46.755Z,2.85
2022-11-03T11:50:16.484Z,2.97
2022-11-03T11:55:26.370Z,2.75
2022-11-03T12:00:32.176Z,3.15
2022-11-03T12:05:37.293Z,3.13
2022-11-03T12:10:53.488Z,2.80
2022-11-03T12:15:57.644Z,2.92
2022-11-03T12:21:03.120Z,2.97
2022-11-03T12:26:07.232Z,3.00
2022-11-03T12:31:10.918Z,3.72
2022-11-03T12:36:15.915Z,2.92
2022-11-03T12:41:25.370Z,3.20
2022-11-03T12:46:29.575Z,2.90
2022-11-03T12:51:34.295Z,2.92
2022-11-03T12:56:37.686Z,2.55
2022-11-03T13:01:41.761Z,2.65
2022-11-03T13:06:46.690Z,3.83
2022-11-03T13:12:07.669Z,2.70
2022-11-03T13:17:11.041Z,4.05
2022-11-03T13:22:15.883Z,4.43
2022-11-03T13:27:19.403Z,3.05
2022-11-03T13:32:22.813Z,4.07
2022-11-03T13:37:27.821Z,3.63
2022-11-03T13:42:31.286Z,3.50
2022-11-03T13:48:15.514Z,3.88
2022-11-03T14:09:11.430Z,4.20
2022-11-03T14:14:14.868Z,4.88
2022-11-03T14:19:18.244Z,4.30
2022-11-03T14:24:23.453Z,3.78
2022-11-03T14:29:27.128Z,4.10
2022-11-03T14:34:30.541Z,3.38
2022-11-03T14:39:36.525Z,3.90
2022-11-03T14:44:40.931Z,4.20
2022-11-03T14:49:44.470Z,5.53
2022-11-03T14:54:49.414Z,11.50
2022-11-03T14:59:53.676Z,11.80
2022-11-03T15:04:57.631Z,7.57
2022-11-03T15:10:02.378Z,5.70
2022-11-03T15:15:06.724Z,5.90
2022-11-03T15:20:11.692Z,6.22
2022-11-03T15:25:19.817Z,6.43
2022-11-03T15:30:27.906Z,7.03
2022-11-03T15:35:31.396Z,8.07
2022-11-03T15:40:36.151Z,7.80
2022-11-03T15:45:40.596Z,7.43
2022-11-03T15:50:44.227Z,5.53
2022-11-03T15:55:49.014Z,5.43
2022-11-03T16:00:52.485Z,6.75
2022-11-03T16:05:56.237Z,6.28
2022-11-03T16:11:00.942Z,5.93
2022-11-03T16:16:04.629Z,5.78
2022-11-03T16:21:08.527Z,6.63
2022-11-03T16:26:14.615Z,7.25
2022-11-03T16:31:18.352Z,6.25
2022-11-03T16:36:21.796Z,5.35
2022-11-03T16:41:26.556Z,7.25
2022-11-03T16:46:30.006Z,9.32
2022-11-03T16:51:33.695Z,7.78
2022-11-03T16:56:38.572Z,6.90
2022-11-03T17:01:42.121Z,6.30
2022-11-03T17:06:45.886Z,6.30
2022-11-03T17:11:50.645Z,6.47
2022-11-03T17:16:53.999Z,6.90
2022-11-03T17:21:57.432Z,7.68
2022-11-03T17:27:05.017Z,6.97
2022-11-03T17:32:12.177Z,8.75
2022-11-03T17:37:15.630Z,9.20
2022-11-03T17:42:24.699Z,8.57
2022-11-03T17:47:28.115Z,9.15
2022-11-03T17:52:32.679Z,10.15
2022-11-03T17:57:37.857Z,12.30
2022-11-03T18:02:41.836Z,11.88
2022-11-03T18:07:45.414Z,12.30
2022-11-03T18:13:09.643Z,14.10
2022-11-03T18:18:16.479Z,15.32
2022-11-03T18:23:21.676Z,15.98
2022-11-03T18:28:26.414Z,15.30
2022-11-03T18:33:32.721Z,15.40
2022-11-03T18:38:37.567Z,13.93
2022-11-03T18:43:42.681Z,14.50
2022-11-03T18:48:46.141Z,15.18
2022-11-03T18:53:49.840Z,15.23
2022-11-03T18:58:57.882Z,15.23
2022-11-03T19:04:01.258Z,13.15
2022-11-03T19:09:05.526Z,12.98
2022-11-03T19:14:14.612Z,12.50
2022-11-03T19:19:18.083Z,13.45
2022-11-03T19:24:21.774Z,13.95
2022-11-03T19:29:30.751Z,13.32
2022-11-03T19:34:36.153Z,15.05
2022-11-03T19:39:41.762Z,12.82
2022-11-03T19:44:46.920Z,13.10
2022-11-03T19:49:50.678Z,14.90
2022-11-03T19:54:55.387Z,13.88
2022-11-03T20:00:00.129Z,15.40
2022-11-03T20:05:03.805Z,14.90
2022-11-03T20:10:14.464Z,16.45
2022-11-03T20:15:22.893Z,16.58
2022-11-03T20:20:35.077Z,17.33
2022-11-03T20:25:39.455Z,17.92
2022-11-03T20:30:44.514Z,15.93
2022-11-03T20:35:49.461Z,15.82
2022-11-03T20:40:58.351Z,16.88
2022-11-03T20:46:05.082Z,15.07
2022-11-03T20:51:11.263Z,15.75
2022-11-03T20:56:19.565Z,15.90
2022-11-03T21:01:27.573Z,15.95
2022-11-03T21:06:33.122Z,15.68
2022-11-03T21:11:40.631Z,16.88
2022-11-03T21:17:03.112Z,16.38
2022-11-03T21:22:30.933Z,15.27
2022-11-03T21:27:40.835Z,15.65
2022-11-03T21:32:47.916Z,16.00
2022-11-03T21:37:51.366Z,15.82
2022-11-03T21:43:12.141Z,16.27
2022-11-03T21:48:34.974Z,15.55
2022-11-03T21:53:38.631Z,16.00
2022-11-03T21:58:42.035Z,14.45
2022-11-03T22:03:46.813Z,14.05
2022-11-03T22:08:52.448Z,14.95
2022-11-03T22:13:58.669Z,15.38
2022-11-03T22:19:21.112Z,15.90
2022-11-03T22:24:42.029Z,15.05
2022-11-03T22:30:11.662Z,14.40
2022-11-03T22:35:33.908Z,13.75
2022-11-03T22:40:56.307Z,14.27
2022-11-03T22:46:00.012Z,15.25
2022-11-03T22:51:06.937Z,13.00
2022-11-03T22:56:10.595Z,14.57
2022-11-03T23:01:15.727Z,13.43
2022-11-03T23:06:22.681Z,15.52
2022-11-03T23:11:29.317Z,14.27
2022-11-03T23:16:34.481Z,13.25
2022-11-03T23:21:39.712Z,12.77
2022-11-03T23:26:44.416Z,13.52
2022-11-03T23:31:48.444Z,13.68
2022-11-03T23:36:53.665Z,14.38
2022-11-03T23:41:57.125Z,12.70
2022-11-03T23:47:17.965Z,13.48
2022-11-03T23:52:22.715Z,12.68
2022-11-03T23:57:44.032Z,14.05
